Time;durP1;ratioP1;P1;durP2;ratioP2;P2;SDS_P1;SDS_P2;PMS_P1;PMS_P2;Temp;Humidity;BMP_temperature;BMP_pressure;BME280_temperature;BME280_humidity;BME280_pressure;Samples;Min_cycle;Max_cycle;Signal;HPM_P1;HPM_P2
2022/09/18 00:01:33;;;;;;;4.22;0.80;;;10.90;99.90;;;;;;4974337;28;20113;-70
2022/09/18 00:04:02;;;;;;;6.07;0.93;;;10.70;99.90;;;;;;4975233;28;20499;-72
2022/09/18 00:06:31;;;;;;;2.95;0.80;;;10.60;99.90;;;;;;4974125;28;20101;-70
2022/09/18 00:08:59;;;;;;;4.95;0.50;;;10.70;99.90;;;;;;4974520;28;20047;-71
2022/09/18 00:11:28;;;;;;;4.07;0.70;;;10.80;99.90;;;;;;4975171;28;20051;-70
2022/09/18 00:13:53;;;;;;;8.00;0.50;;;10.90;99.90;;;;;;4973811;28;20077;-70
2022/09/18 00:16:21;;;;;;;3.55;0.57;;;10.90;99.90;;;;;;4974069;28;20129;-69
2022/09/18 00:18:47;;;;;;;4.13;0.68;;;10.80;99.90;;;;;;4975052;28;20047;-70
2022/09/18 00:21:19;;;;;;;4.38;0.70;;;10.70;99.90;;;;;;4974065;28;20057;-69
2022/09/18 00:23:45;;;;;;;4.32;0.68;;;10.80;99.90;;;;;;4974695;28;20054;-69
2022/09/18 00:26:13;;;;;;;3.70;0.60;;;10.70;99.90;;;;;;4973955;28;20046;-70
2022/09/18 00:28:39;;;;;;;5.38;0.60;;;10.90;99.90;;;;;;4973656;28;20447;-70
2022/09/18 00:31:06;;;;;;;6.53;0.60;;;10.90;99.90;;;;;;4973628;28;20043;-70
2022/09/18 00:33:32;;;;;;;5.25;0.68;;;10.80;99.90;;;;;;4974719;28;20524;-70
2022/09/18 00:36:02;;;;;;;4.97;0.60;;;10.90;99.90;;;;;;4974528;28;20133;-71
2022/09/18 00:38:30;;;;;;;3.35;0.50;;;10.80;99.90;;;;;;4973914;28;20053;-70
2022/09/18 00:40:57;;;;;;;2.67;1.10;;;10.80;99.90;;;;;;4973968;28;20142;-71
2022/09/18 00:43:25;;;;;;;4.05;1.13;;;10.90;99.90;;;;;;4974536;28;20047;-71
2022/09/18 00:46:06;;;;;;;5.13;0.60;;;10.80;99.90;;;;;;4973738;28;20062;-70
2022/09/18 00:49:11;;;;;;;3.30;0.60;;;10.80;99.90;;;;;;4973434;28;20039;-70
2022/09/18 00:51:38;;;;;;;5.15;0.70;;;10.80;99.90;;;;;;4973667;28;20046;-71
2022/09/18 00:54:33;;;;;;;5.13;0.60;;;11.20;99.90;;;;;;4974437;28;20053;-70
2022/09/18 00:57:03;;;;;;;1.52;0.60;;;10.80;99.90;;;;;;4972580;28;20059;-71
2022/09/18 00:59:31;;;;;;;3.20;0.63;;;11.00;99.90;;;;;;4973667;28;20141;-70
2022/09/18 01:01:58;;;;;;;6.65;0.63;;;11.00;99.90;;;;;;4974419;28;20050;-70
2022/09/18 01:04:25;;;;;;;3.97;0.70;;;10.80;99.90;;;;;;4973599;28;20098;-69
2022/09/18 01:07:12;;;;;;;2.85;0.50;;;10.80;99.90;;;;;;4974329;28;20566;-70
2022/09/18 01:09:53;;;;;;;3.47;0.50;;;10.70;99.90;;;;;;4972921;28;20058;-71
2022/09/18 01:12:39;;;;;;;2.70;0.43;;;10.80;99.90;;;;;;4974135;28;20105;-70
2022/09/18 01:15:36;;;;;;;3.53;0.52;;;10.80;99.90;;;;;;4974383;28;20050;-70
2022/09/18 01:18:18;;;;;;;4.30;0.60;;;10.80;99.90;;;;;;4974562;28;20094;-71
2022/09/18 01:21:05;;;;;;;3.50;0.60;;;10.80;99.90;;;;;;4975409;28;20055;-71
2022/09/18 01:24:05;;;;;;;2.97;0.60;;;10.80;99.90;;;;;;4978077;28;20613;-70
2022/09/18 01:26:53;;;;;;;4.90;0.70;;;10.90;99.90;;;;;;4978337;28;20050;-71
2022/09/18 01:29:38;;;;;;;9.40;0.65;;;10.80;99.90;;;;;;4961202;28;20117;-70
2022/09/18 01:32:10;;;;;;;5.38;0.60;;;11.20;99.90;;;;;;4976801;28;20060;-71
2022/09/18 01:34:58;;;;;;;9.00;1.27;;;11.10;99.90;;;;;;4976604;28;20054;-71
2022/09/18 01:37:42;;;;;;;5.28;0.73;;;11.20;99.90;;;;;;4977849;28;20046;-71
2022/09/18 01:40:18;;;;;;;4.95;0.60;;;11.00;99.90;;;;;;4977732;28;20047;-70
2022/09/18 01:42:48;;;;;;;6.57;1.05;;;11.00;99.90;;;;;;4977180;28;20050;-71
2022/09/18 01:45:22;;;;;;;7.35;0.80;;;11.10;99.90;;;;;;4976760;28;20082;-70
2022/09/18 01:47:53;;;;;;;3.28;0.93;;;10.90;99.90;;;;;;4976764;28;20101;-70
2022/09/18 01:50:20;;;;;;;3.90;1.05;;;11.00;99.90;;;;;;4977587;28;20130;-70
2022/09/18 01:52:53;;;;;;;4.78;0.80;;;10.90;99.90;;;;;;4977544;28;20129;-72
2022/09/18 01:55:23;;;;;;;6.57;0.80;;;11.00;99.90;;;;;;4960296;28;20042;-71
2022/09/18 01:57:55;;;;;;;3.25;0.57;;;11.00;99.90;;;;;;4976589;28;20058;-70
2022/09/18 02:00:21;;;;;;;3.50;0.80;;;10.80;99.90;;;;;;4977733;28;20121;-70
2022/09/18 02:03:00;;;;;;;3.97;0.70;;;10.80;99.90;;;;;;4976161;28;20526;-70
2022/09/18 02:05:39;;;;;;;6.43;0.55;;;10.80;99.90;;;;;;4960376;28;20097;-70
2022/09/18 02:08:05;;;;;;;7.70;1.00;;;10.80;99.90;;;;;;4976190;28;20059;-71
2022/09/18 02:10:34;;;;;;;2.92;0.60;;;10.80;99.90;;;;;;4975517;28;20074;-71
2022/09/18 02:13:02;;;;;;;5.10;0.50;;;10.80;99.90;;;;;;4976226;28;20093;-70
2022/09/18 02:15:30;;;;;;;4.38;0.50;;;10.90;99.90;;;;;;4975866;28;20047;-71
2022/09/18 02:18:00;;;;;;;3.55;0.50;;;10.90;99.90;;;;;;4977112;28;20042;-69
2022/09/18 02:20:29;;;;;;;6.30;0.50;;;11.20;99.90;;;;;;4975711;28;20466;-69
2022/09/18 02:23:02;;;;;;;3.83;0.45;;;10.90;99.90;;;;;;4977132;28;20054;-70
2022/09/18 02:25:44;;;;;;;4.00;0.40;;;10.90;99.90;;;;;;4976023;28;20193;-70
2022/09/18 02:28:14;;;;;;;2.60;0.73;;;10.90;99.90;;;;;;4960070;28;20058;-70
2022/09/18 02:30:41;;;;;;;4.38;0.40;;;10.90;99.90;;;;;;4976833;28;20050;-71
2022/09/18 02:33:25;;;;;;;2.45;0.30;;;10.80;99.90;;;;;;4958617;28;20055;-70
2022/09/18 02:36:07;;;;;;;4.43;0.60;;;11.00;99.90;;;;;;4975950;28;20078;-70
2022/09/18 02:38:44;;;;;;;1.70;0.53;;;10.80;99.90;;;;;;4976674;28;20051;-70
2022/09/18 02:41:33;;;;;;;1.23;0.30;;;11.00;99.90;;;;;;4976326;28;20126;-71
2022/09/18 02:44:17;;;;;;;1.95;0.38;;;10.90;99.90;;;;;;4976231;28;20050;-70
2022/09/18 02:47:09;;;;;;;6.07;0.90;;;10.90;99.90;;;;;;4976544;28;20101;-70
2022/09/18 02:49:46;;;;;;;6.60;0.60;;;10.90;99.90;;;;;;4974822;28;20062;-71
2022/09/18 02:52:20;;;;;;;4.03;0.63;;;10.80;99.90;;;;;;4975815;28;20047;-70
2022/09/18 02:54:55;;;;;;;6.60;0.50;;;10.80;99.90;;;;;;4976513;28;20046;-69
2022/09/18 02:57:27;;;;;;;2.63;0.60;;;10.90;99.90;;;;;;4975328;28;20133;-70
2022/09/18 02:59:57;;;;;;;3.58;0.60;;;11.30;99.90;;;;;;4974994;28;20121;-71
2022/09/18 03:02:24;;;;;;;7.38;0.70;;;10.90;99.90;;;;;;4959400;28;20086;-70
2022/09/18 03:04:50;;;;;;;2.55;0.60;;;11.00;99.90;;;;;;4976326;28;20046;-69
2022/09/18 03:07:17;;;;;;;4.45;0.60;;;10.80;99.90;;;;;;4975569;28;20050;-70
2022/09/18 03:09:43;;;;;;;4.10;0.55;;;11.00;99.90;;;;;;4976109;28;20097;-70
2022/09/18 03:12:09;;;;;;;4.90;0.50;;;11.00;99.90;;;;;;4975526;28;20054;-69
2022/09/18 03:14:35;;;;;;;5.43;0.82;;;10.80;99.90;;;;;;4975781;28;20090;-71
2022/09/18 03:17:01;;;;;;;7.68;0.60;;;10.70;99.90;;;;;;4959062;28;20078;-69
2022/09/18 03:19:27;;;;;;;3.97;0.50;;;11.00;99.90;;;;;;4976088;28;20053;-70
2022/09/18 03:21:53;;;;;;;4.32;0.55;;;10.90;99.90;;;;;;4975979;28;20105;-69
2022/09/18 03:24:19;;;;;;;8.13;0.70;;;10.70;99.90;;;;;;4975779;28;20204;-70
2022/09/18 03:26:46;;;;;;;5.55;0.43;;;10.70;99.90;;;;;;4975044;28;20133;-69
2022/09/18 03:29:13;;;;;;;6.95;0.77;;;10.60;99.90;;;;;;4974732;28;20054;-70
2022/09/18 03:31:39;;;;;;;3.15;0.60;;;10.70;99.90;;;;;;4975085;28;20384;-69
2022/09/18 03:34:05;;;;;;;5.43;1.15;;;10.60;99.90;;;;;;4974267;28;20506;-70
2022/09/18 03:36:30;;;;;;;5.15;0.60;;;10.60;99.90;;;;;;4958663;28;20145;-69
2022/09/18 03:38:56;;;;;;;5.85;0.70;;;11.00;99.90;;;;;;4975776;28;20097;-69
2022/09/18 03:41:23;;;;;;;3.38;0.70;;;10.60;99.90;;;;;;4974094;28;20051;-70
2022/09/18 03:43:49;;;;;;;4.10;0.50;;;10.50;99.90;;;;;;4974982;28;20162;-70
2022/09/18 03:46:22;;;;;;;3.72;0.70;;;10.50;99.90;;;;;;4974662;28;20055;-70
2022/09/18 03:48:51;;;;;;;3.30;0.53;;;10.40;99.90;;;;;;4974731;28;20126;-69
2022/09/18 03:51:18;;;;;;;4.10;0.70;;;10.80;99.90;;;;;;4975277;28;20333;-69
2022/09/18 03:53:45;;;;;;;5.95;1.05;;;10.60;99.90;;;;;;4975486;28;20633;-69
2022/09/18 03:56:12;;;;;;;4.70;0.70;;;10.80;99.90;;;;;;4975057;28;20047;-71
2022/09/18 03:58:38;;;;;;;3.63;0.80;;;10.60;99.90;;;;;;4974285;28;20051;-71
2022/09/18 04:01:05;;;;;;;6.15;0.70;;;10.60;99.90;;;;;;4975184;28;20051;-70
2022/09/18 04:03:31;;;;;;;2.65;0.60;;;10.70;99.90;;;;;;4974264;28;20106;-71
2022/09/18 04:05:57;;;;;;;4.40;0.80;;;10.70;99.90;;;;;;4975198;28;20479;-69
2022/09/18 04:08:23;;;;;;;4.72;0.50;;;11.10;99.90;;;;;;4958053;28;20051;-69
2022/09/18 04:10:49;;;;;;;4.65;0.60;;;10.60;99.90;;;;;;4973466;28;20145;-71
2022/09/18 04:13:15;;;;;;;4.22;0.60;;;10.80;99.90;;;;;;4973825;28;20051;-71
2022/09/18 04:15:40;;;;;;;4.30;0.60;;;10.70;99.90;;;;;;4975099;28;20046;-71
2022/09/18 04:18:06;;;;;;;4.43;0.50;;;10.60;99.90;;;;;;4975057;28;20042;-71
2022/09/18 04:20:32;;;;;;;7.05;1.05;;;10.60;99.90;;;;;;4975324;28;20046;-71
2022/09/18 04:22:57;;;;;;;3.95;0.50;;;10.80;99.90;;;;;;4973684;28;20566;-70
2022/09/18 04:25:23;;;;;;;3.35;0.60;;;10.60;99.90;;;;;;4974486;28;20039;-71
2022/09/18 04:27:49;;;;;;;6.70;0.60;;;10.60;99.90;;;;;;4974600;28;20093;-70
2022/09/18 04:30:15;;;;;;;6.05;0.40;;;10.60;99.90;;;;;;4974716;28;20134;-70
2022/09/18 04:32:41;;;;;;;3.65;0.55;;;10.60;99.90;;;;;;4973523;28;20043;-72
2022/09/18 04:35:07;;;;;;;3.92;0.55;;;10.80;99.90;;;;;;4973416;28;20074;-71
2022/09/18 04:37:33;;;;;;;6.47;0.60;;;10.70;99.90;;;;;;4973681;28;20054;-70
2022/09/18 04:39:58;;;;;;;3.60;0.63;;;10.80;99.90;;;;;;4973220;28;20042;-73
2022/09/18 04:42:24;;;;;;;5.25;1.48;;;10.70;99.90;;;;;;4973943;28;20046;-71
2022/09/18 04:44:50;;;;;;;5.70;0.70;;;10.70;99.90;;;;;;4973318;28;20094;-69
2022/09/18 04:47:15;;;;;;;3.25;0.50;;;10.80;99.90;;;;;;4974464;28;20047;-70
2022/09/18 04:49:41;;;;;;;3.38;0.30;;;10.80;99.90;;;;;;4974649;28;20054;-71
2022/09/18 04:52:07;;;;;;;1.98;0.30;;;10.90;99.90;;;;;;4973186;28;20043;-71
2022/09/18 04:54:32;;;;;;;3.03;0.60;;;10.90;99.90;;;;;;4974218;28;20081;-70
2022/09/18 04:56:58;;;;;;;2.30;0.50;;;10.80;99.90;;;;;;4960389;28;20058;-70
2022/09/18 04:59:24;;;;;;;3.03;0.60;;;10.90;99.90;;;;;;4978713;28;20094;-70
2022/09/18 05:01:49;;;;;;;1.63;0.40;;;10.90;99.90;;;;;;4978419;28;20479;-70
2022/09/18 05:04:15;;;;;;;4.80;0.40;;;10.80;99.90;;;;;;4977446;28;20055;-71
2022/09/18 05:06:41;;;;;;;3.58;0.40;;;10.90;99.90;;;;;;4977426;28;20043;-71
2022/09/18 05:09:06;;;;;;;4.20;0.40;;;10.90;99.90;;;;;;4976624;28;20063;-73
2022/09/18 05:11:32;;;;;;;2.92;0.32;;;11.10;99.90;;;;;;4976499;28;20457;-70
2022/09/18 05:13:58;;;;;;;4.03;0.45;;;10.90;99.90;;;;;;4977029;28;20046;-70
2022/09/18 05:16:24;;;;;;;4.80;0.55;;;10.80;99.90;;;;;;4978154;28;20134;-69
2022/09/18 05:18:51;;;;;;;4.55;0.90;;;10.80;99.90;;;;;;4978278;28;20458;-70
2022/09/18 05:21:17;;;;;;;4.68;1.45;;;11.10;99.90;;;;;;4978020;28;20050;-69
2022/09/18 05:23:44;;;;;;;3.78;0.50;;;11.00;99.90;;;;;;4977963;28;20134;-71
2022/09/18 05:26:10;;;;;;;2.15;0.45;;;10.90;99.90;;;;;;4977684;28;20062;-70
2022/09/18 05:28:36;;;;;;;2.42;0.50;;;11.00;99.90;;;;;;4978059;28;20046;-69
2022/09/18 05:31:03;;;;;;;3.35;0.50;;;11.00;99.90;;;;;;4978012;28;20046;-70
2022/09/18 05:33:29;;;;;;;6.78;0.65;;;10.80;99.90;;;;;;4976803;28;20051;-71
2022/09/18 05:35:56;;;;;;;3.00;0.43;;;10.80;99.90;;;;;;4977798;28;20053;-71
2022/09/18 05:38:25;;;;;;;3.88;0.45;;;11.30;99.90;;;;;;4976684;28;20148;-72
2022/09/18 05:40:51;;;;;;;2.55;0.40;;;10.90;99.90;;;;;;4977247;28;20051;-70
2022/09/18 05:43:17;;;;;;;3.55;0.40;;;11.10;99.90;;;;;;4977062;28;20496;-69
2022/09/18 05:45:43;;;;;;;3.92;0.45;;;10.90;99.90;;;;;;4976405;28;20549;-69
2022/09/18 05:48:11;;;;;;;3.42;0.68;;;11.20;99.90;;;;;;4977476;28;20402;-70
2022/09/18 05:50:37;;;;;;;3.45;0.50;;;10.70;99.90;;;;;;4976350;28;20134;-70
2022/09/18 05:53:09;;;;;;;3.10;0.50;;;11.10;99.90;;;;;;4976479;28;20109;-71
2022/09/18 05:55:35;;;;;;;2.63;0.50;;;11.10;99.90;;;;;;4976532;28;20532;-71
2022/09/18 05:58:02;;;;;;;5.15;0.60;;;11.10;99.90;;;;;;4977279;28;20082;-71
2022/09/18 06:00:29;;;;;;;6.90;0.50;;;11.00;99.90;;;;;;4977197;28;20522;-71
2022/09/18 06:02:57;;;;;;;3.92;0.60;;;10.90;99.90;;;;;;4977174;28;20051;-71
2022/09/18 06:05:24;;;;;;;3.90;0.60;;;10.90;99.90;;;;;;4976368;28;20063;-71
2022/09/18 06:07:50;;;;;;;2.30;0.40;;;10.80;99.90;;;;;;4976751;28;20054;-71
2022/09/18 06:10:18;;;;;;;2.42;0.50;;;10.80;99.90;;;;;;4977470;28;20466;-71
2022/09/18 06:12:44;;;;;;;2.75;0.40;;;10.80;99.90;;;;;;4975529;28;20122;-71
2022/09/18 06:15:11;;;;;;;3.15;0.45;;;10.80;99.90;;;;;;4959872;28;20142;-71
2022/09/18 06:17:37;;;;;;;3.03;0.43;;;10.70;99.90;;;;;;4976313;28;20043;-70
2022/09/18 06:20:04;;;;;;;3.67;0.55;;;10.80;99.90;;;;;;4975945;28;20125;-71
2022/09/18 06:22:31;;;;;;;4.10;0.60;;;10.60;99.90;;;;;;4977059;28;20089;-72
2022/09/18 06:24:57;;;;;;;2.00;0.35;;;10.80;99.90;;;;;;4975817;28;20098;-71
2022/09/18 06:27:22;;;;;;;3.55;1.95;;;10.70;99.90;;;;;;4975758;28;20086;-71
2022/09/18 06:29:49;;;;;;;3.50;0.40;;;10.60;99.90;;;;;;4959818;28;20055;-71
2022/09/18 06:32:15;;;;;;;1.85;0.40;;;10.70;99.90;;;;;;4976810;28;20053;-70
2022/09/18 06:34:41;;;;;;;4.82;0.40;;;10.50;99.90;;;;;;4976571;28;20487;-72
2022/09/18 06:37:10;;;;;;;3.00;0.40;;;10.50;99.90;;;;;;4975647;28;20059;-71
2022/09/18 06:39:36;;;;;;;2.42;0.40;;;10.50;99.90;;;;;;4959472;28;20384;-70
2022/09/18 06:42:01;;;;;;;2.33;0.52;;;10.70;99.90;;;;;;4975989;28;20057;-70
2022/09/18 06:44:27;;;;;;;2.63;0.35;;;10.40;99.90;;;;;;4975773;28;20054;-72
2022/09/18 06:46:53;;;;;;;2.38;0.50;;;10.50;99.90;;;;;;4975534;28;20047;-71
2022/09/18 06:49:18;;;;;;;3.30;0.52;;;10.50;99.90;;;;;;4976294;28;20047;-72
2022/09/18 06:51:47;;;;;;;5.60;0.50;;;10.50;99.90;;;;;;4975356;28;20058;-71
2022/09/18 06:54:13;;;;;;;2.80;0.30;;;10.70;99.90;;;;;;4975336;28;20051;-71
2022/09/18 06:56:40;;;;;;;2.13;0.40;;;10.80;99.90;;;;;;4976419;28;20061;-71
2022/09/18 06:59:05;;;;;;;5.20;0.52;;;10.60;99.90;;;;;;4976166;28;20117;-71
2022/09/18 07:01:31;;;;;;;7.90;0.57;;;10.90;99.90;;;;;;4976467;28;20089;-72
2022/09/18 07:03:57;;;;;;;2.40;0.40;;;10.80;99.90;;;;;;4982377;28;20035;-72
2022/09/18 07:06:23;;;;;;;3.38;0.40;;;10.60;99.90;;;;;;4959739;28;20117;-70
2022/09/18 07:08:49;;;;;;;3.95;0.50;;;10.80;99.90;;;;;;4975676;28;20047;-69
2022/09/18 07:11:14;;;;;;;4.75;0.47;;;10.70;99.90;;;;;;4975646;28;20055;-68
2022/09/18 07:13:40;;;;;;;4.00;0.63;;;10.70;99.90;;;;;;4974810;28;20479;-68
2022/09/18 07:16:06;;;;;;;1.98;0.38;;;10.80;99.90;;;;;;4958339;28;20100;-68
2022/09/18 07:18:32;;;;;;;2.53;0.60;;;10.50;99.90;;;;;;4975185;28;20138;-69
2022/09/18 07:20:59;;;;;;;3.17;0.40;;;10.60;99.90;;;;;;4975771;28;20129;-68
2022/09/18 07:23:25;;;;;;;3.10;0.30;;;10.40;99.90;;;;;;4974858;28;20047;-68
2022/09/18 07:25:51;;;;;;;3.53;0.40;;;10.40;99.90;;;;;;4958558;28;20050;-68
2022/09/18 07:28:17;;;;;;;1.70;0.30;;;10.40;99.90;;;;;;4974665;28;20054;-68
2022/09/18 07:30:42;;;;;;;5.10;0.80;;;10.40;99.90;;;;;;4975793;28;20061;-69
2022/09/18 07:33:09;;;;;;;5.65;0.50;;;10.90;99.90;;;;;;4958556;28;20074;-68
2022/09/18 07:35:35;;;;;;;3.85;0.60;;;10.40;99.90;;;;;;4974721;28;20121;-67
2022/09/18 07:38:04;;;;;;;2.90;0.50;;;10.60;99.90;;;;;;4980461;28;20046;-68
2022/09/18 07:40:30;;;;;;;2.90;0.60;;;10.60;99.90;;;;;;4993535;28;20046;-69
2022/09/18 07:43:05;;;;;;;2.13;0.45;;;10.80;99.90;;;;;;4974079;28;20066;-67
2022/09/18 07:45:31;;;;;;;6.07;1.02;;;10.70;99.90;;;;;;4975456;28;20143;-68
2022/09/18 07:48:00;;;;;;;6.22;0.57;;;10.60;99.90;;;;;;4974902;28;20051;-70
2022/09/18 07:50:26;;;;;;;3.97;0.70;;;10.60;99.90;;;;;;4994397;28;20042;-70
2022/09/18 07:52:54;;;;;;;5.97;0.50;;;10.80;99.90;;;;;;4991800;28;20379;-70
2022/09/18 07:55:21;;;;;;;3.85;0.63;;;10.70;99.90;;;;;;4993301;28;20050;-70
2022/09/18 07:57:52;;;;;;;5.82;0.60;;;10.70;99.90;;;;;;4994350;28;20078;-70
2022/09/18 08:00:18;;;;;;;1.67;0.30;;;10.70;99.90;;;;;;4991927;28;20128;-70
2022/09/18 08:02:44;;;;;;;4.22;0.90;;;10.70;99.90;;;;;;4994121;28;20487;-68
2022/09/18 08:05:09;;;;;;;6.78;0.50;;;10.80;99.90;;;;;;4993155;28;20058;-69
2022/09/18 08:07:35;;;;;;;1.60;0.50;;;10.70;99.90;;;;;;4992974;28;20050;-69
2022/09/18 08:10:02;;;;;;;1.85;0.32;;;10.70;99.90;;;;;;4992268;28;20059;-68
2022/09/18 08:12:28;;;;;;;3.20;0.50;;;10.70;99.90;;;;;;4992990;28;20081;-67
2022/09/18 08:14:54;;;;;;;2.80;0.40;;;10.70;99.90;;;;;;4993072;28;20078;-68
2022/09/18 08:17:20;;;;;;;3.63;0.30;;;10.80;99.90;;;;;;4977251;28;20042;-68
2022/09/18 08:19:45;;;;;;;4.45;0.40;;;10.70;99.90;;;;;;4994563;28;20073;-68
2022/09/18 08:22:11;;;;;;;2.63;0.30;;;10.70;99.90;;;;;;4993395;28;20514;-68
2022/09/18 08:24:37;;;;;;;1.98;0.52;;;10.70;99.90;;;;;;4993308;28;20081;-69
2022/09/18 08:27:03;;;;;;;2.00;0.50;;;10.80;99.90;;;;;;4994530;28;20042;-68
2022/09/18 08:29:29;;;;;;;5.10;0.45;;;10.80;99.90;;;;;;4993171;28;20390;-69
2022/09/18 08:31:55;;;;;;;4.13;0.82;;;10.70;99.90;;;;;;4994476;28;20049;-69
2022/09/18 08:34:21;;;;;;;9.85;2.08;;;10.90;99.90;;;;;;4993157;28;20042;-69
2022/09/18 08:36:47;;;;;;;4.35;0.88;;;10.90;99.90;;;;;;4994433;28;20467;-71
2022/09/18 08:39:12;;;;;;;3.70;0.70;;;10.80;99.90;;;;;;4994123;28;20537;-69
2022/09/18 08:41:38;;;;;;;5.57;0.47;;;10.70;99.90;;;;;;4992594;28;20050;-70
2022/09/18 08:44:13;;;;;;;6.28;0.60;;;10.80;99.90;;;;;;4992938;28;20089;-68
2022/09/18 08:46:41;;;;;;;5.97;1.00;;;10.60;99.90;;;;;;4973372;28;20058;-68
2022/09/18 08:49:19;;;;;;;6.22;0.80;;;10.60;99.90;;;;;;4973825;28;20490;-68
2022/09/18 08:52:05;;;;;;;3.25;0.60;;;10.60;99.90;;;;;;4990157;28;20375;-68
2022/09/18 08:54:43;;;;;;;3.25;0.60;;;10.80;99.90;;;;;;4993359;28;20042;-69
2022/09/18 08:57:31;;;;;;;1.85;0.50;;;10.70;99.90;;;;;;4992466;28;20117;-68
2022/09/18 09:00:21;;;;;;;2.63;0.63;;;10.70;99.90;;;;;;4990814;28;20046;-69
2022/09/18 09:02:49;;;;;;;2.53;0.30;;;10.70;99.90;;;;;;4992241;28;20058;-70
2022/09/18 09:05:20;;;;;;;2.25;0.47;;;11.00;99.90;;;;;;4992209;28;20467;-69
2022/09/18 09:08:06;;;;;;;4.32;0.50;;;10.70;99.90;;;;;;4992263;28;20112;-69
2022/09/18 09:10:43;;;;;;;1.83;0.57;;;10.60;99.90;;;;;;4990893;28;20058;-69
2022/09/18 09:13:23;;;;;;;1.95;0.50;;;10.70;99.90;;;;;;4989419;28;20649;-69
2022/09/18 09:15:57;;;;;;;2.55;0.30;;;10.60;99.90;;;;;;4988856;28;20100;-69
2022/09/18 09:18:32;;;;;;;1.40;0.32;;;10.80;99.90;;;;;;4991966;28;20120;-68
2022/09/18 09:21:07;;;;;;;2.47;0.25;;;10.60;99.90;;;;;;4990452;28;20050;-68
2022/09/18 09:23:51;;;;;;;2.15;0.40;;;10.70;99.90;;;;;;4989896;28;20046;-69
2022/09/18 09:26:21;;;;;;;3.10;0.50;;;10.70;99.90;;;;;;4990781;28;20474;-69
2022/09/18 09:29:22;;;;;;;2.67;0.85;;;10.70;99.90;;;;;;4970137;28;20061;-70
2022/09/18 09:31:55;;;;;;;2.55;0.40;;;10.70;99.90;;;;;;4971935;28;20077;-70
2022/09/18 09:34:29;;;;;;;3.65;0.50;;;10.90;99.90;;;;;;4991389;28;20426;-68
2022/09/18 09:36:58;;;;;;;5.15;0.60;;;11.20;99.90;;;;;;4991018;28;20101;-68
2022/09/18 09:39:31;;;;;;;2.78;0.50;;;10.90;99.90;;;;;;4991184;28;20374;-68
2022/09/18 09:42:16;;;;;;;4.38;0.45;;;10.80;99.90;;;;;;4991944;28;20039;-68
2022/09/18 09:44:59;;;;;;;3.13;0.50;;;11.00;99.90;;;;;;4995165;28;20113;-69
2022/09/18 09:47:46;;;;;;;2.58;0.60;;;11.30;99.90;;;;;;4994762;28;20096;-70
2022/09/18 09:50:28;;;;;;;3.58;0.50;;;11.10;99.90;;;;;;4993235;28;20038;-69
2022/09/18 09:52:59;;;;;;;4.13;0.60;;;11.10;99.90;;;;;;4995689;28;20077;-69
2022/09/18 09:55:50;;;;;;;2.17;0.50;;;11.10;99.90;;;;;;4995717;28;20458;-69
2022/09/18 09:58:29;;;;;;;1.90;0.50;;;11.10;99.90;;;;;;4977233;28;20038;-69
2022/09/18 10:01:23;;;;;;;3.47;0.45;;;11.20;99.90;;;;;;4991742;28;20046;-69
2022/09/18 10:04:01;;;;;;;4.53;0.70;;;11.10;99.90;;;;;;4985529;28;20065;-68
2022/09/18 10:06:52;;;;;;;4.28;1.05;;;11.10;99.90;;;;;;4995010;28;20112;-69
2022/09/18 10:09:44;;;;;;;4.07;0.50;;;11.10;99.90;;;;;;4993164;28;20085;-68
2022/09/18 10:12:27;;;;;;;4.55;0.77;;;11.20;99.90;;;;;;4995753;28;20057;-68
2022/09/18 10:14:58;;;;;;;3.08;0.85;;;11.20;99.90;;;;;;4992696;28;20378;-69
2022/09/18 10:17:25;;;;;;;3.03;0.63;;;11.50;99.90;;;;;;4996324;28;20386;-69
2022/09/18 10:19:52;;;;;;;3.78;0.50;;;11.30;99.90;;;;;;4996018;28;20038;-69
2022/09/18 10:22:22;;;;;;;4.80;0.90;;;11.40;99.90;;;;;;4994318;28;20057;-68
2022/09/18 10:25:00;;;;;;;3.65;0.70;;;11.50;99.90;;;;;;4995156;28;20474;-69
2022/09/18 10:27:26;;;;;;;2.85;0.50;;;11.50;99.90;;;;;;4991928;28;20038;-70
2022/09/18 10:29:54;;;;;;;3.17;0.57;;;11.50;99.90;;;;;;4994640;28;20061;-70
2022/09/18 10:32:36;;;;;;;3.58;0.80;;;11.60;99.90;;;;;;4995520;28;20084;-70
2022/09/18 10:35:29;;;;;;;3.40;0.50;;;11.60;99.90;;;;;;4994184;28;20039;-70
2022/09/18 10:37:56;;;;;;;3.75;0.68;;;11.60;99.90;;;;;;4992598;28;20100;-70
2022/09/18 10:40:28;;;;;;;6.93;0.80;;;11.80;99.90;;;;;;4992717;28;20047;-69
2022/09/18 10:42:55;;;;;;;4.35;0.60;;;11.60;99.90;;;;;;4991992;28;20132;-69
2022/09/18 10:45:25;;;;;;;4.90;0.70;;;11.70;99.90;;;;;;4995689;28;20042;-68
2022/09/18 10:48:22;;;;;;;1.95;0.50;;;11.70;99.90;;;;;;4978358;28;20046;-70
2022/09/18 10:50:51;;;;;;;8.05;0.85;;;11.80;99.90;;;;;;4994939;28;20053;-70
2022/09/18 10:53:31;;;;;;;5.38;0.50;;;11.80;99.90;;;;;;4993291;28;20046;-69
2022/09/18 10:56:04;;;;;;;3.58;0.55;;;11.80;99.90;;;;;;4993186;28;20121;-70
2022/09/18 10:58:32;;;;;;;2.00;0.50;;;11.90;99.90;;;;;;4995263;28;20493;-70
2022/09/18 11:01:00;;;;;;;4.13;0.60;;;11.90;99.90;;;;;;4990731;28;20497;-70
2022/09/18 11:03:58;;;;;;;3.17;0.50;;;12.00;99.90;;;;;;4994276;28;20042;-70
2022/09/18 11:06:25;;;;;;;4.47;0.70;;;12.10;99.90;;;;;;4989526;28;20089;-70
2022/09/18 11:08:55;;;;;;;4.43;0.65;;;12.10;99.90;;;;;;4992030;28;20061;-70
2022/09/18 11:11:27;;;;;;;4.80;0.82;;;12.30;99.90;;;;;;4994424;28;20109;-70
2022/09/18 11:13:56;;;;;;;4.13;0.77;;;12.40;99.90;;;;;;4991965;28;20172;-69
2022/09/18 11:16:31;;;;;;;1.23;0.68;;;12.30;99.90;;;;;;4994360;28;20128;-69
2022/09/18 11:19:09;;;;;;;2.65;0.63;;;12.30;99.90;;;;;;4993343;28;20097;-69
2022/09/18 11:21:47;;;;;;;6.70;0.47;;;12.30;99.90;;;;;;4992143;28;20053;-68
2022/09/18 11:24:27;;;;;;;3.15;0.50;;;12.40;99.90;;;;;;4992303;28;20037;-69
2022/09/18 11:26:56;;;;;;;3.55;0.50;;;12.30;99.90;;;;;;4991547;28;20038;-70
2022/09/18 11:29:32;;;;;;;5.32;0.70;;;12.50;99.90;;;;;;4993990;28;20564;-69
2022/09/18 11:32:10;;;;;;;3.25;0.50;;;12.20;99.90;;;;;;4992899;28;20501;-70
2022/09/18 11:34:45;;;;;;;4.32;0.98;;;12.50;99.90;;;;;;4991302;28;20038;-69
2022/09/18 11:37:13;;;;;;;4.32;0.47;;;12.50;99.90;;;;;;4993878;28;20034;-69
2022/09/18 11:39:50;;;;;;;4.85;0.60;;;12.40;99.90;;;;;;4992611;28;20557;-71
2022/09/18 11:42:16;;;;;;;4.53;0.50;;;12.50;99.90;;;;;;4990535;28;20045;-68
2022/09/18 11:44:43;;;;;;;4.55;0.50;;;12.50;99.90;;;;;;4994180;28;20544;-69
2022/09/18 11:47:18;;;;;;;3.03;1.05;;;12.50;99.90;;;;;;4993415;28;20046;-69
2022/09/18 11:50:00;;;;;;;2.80;0.65;;;12.70;99.90;;;;;;4993419;28;20047;-69
2022/09/18 11:52:41;;;;;;;2.70;0.40;;;12.70;99.90;;;;;;4993640;28;20463;-68
2022/09/18 11:55:26;;;;;;;2.63;0.73;;;12.70;99.90;;;;;;4992355;28;20042;-70
2022/09/18 11:58:17;;;;;;;5.13;0.40;;;12.80;99.90;;;;;;4993003;28;20030;-68
2022/09/18 12:00:47;;;;;;;2.45;0.47;;;12.70;99.90;;;;;;5008421;28;20078;-68
2022/09/18 12:03:23;;;;;;;1.67;0.30;;;12.60;99.90;;;;;;4993290;28;20073;-70
2022/09/18 12:05:55;;;;;;;3.70;0.30;;;12.70;99.90;;;;;;4993741;28;20113;-69
2022/09/18 12:08:29;;;;;;;2.63;0.30;;;12.70;99.90;;;;;;4993919;28;20394;-70
2022/09/18 12:11:32;;;;;;;3.92;0.63;;;12.80;99.90;;;;;;4990129;28;20057;-69
2022/09/18 12:14:04;;;;;;;5.20;0.75;;;12.90;99.90;;;;;;4992294;28;20053;-68
2022/09/18 12:17:03;;;;;;;4.03;0.30;;;12.90;99.90;;;;;;4992822;28;20046;-69
2022/09/18 12:19:40;;;;;;;1.65;0.38;;;13.10;99.90;;;;;;4993570;28;20054;-69
2022/09/18 12:22:24;;;;;;;2.50;0.40;;;13.10;99.90;;;;;;4993931;28;20054;-68
2022/09/18 12:24:50;;;;;;;2.67;0.45;;;13.30;99.90;;;;;;4993306;28;20117;-69
2022/09/18 12:27:55;;;;;;;2.35;0.40;;;13.40;99.90;;;;;;4992336;28;20046;-68
2022/09/18 12:30:28;;;;;;;2.92;0.47;;;13.50;99.90;;;;;;4963262;28;20054;-67
2022/09/18 12:33:12;;;;;;;3.38;0.40;;;13.50;99.90;;;;;;4991356;28;20046;-68
2022/09/18 12:35:46;;;;;;;3.67;0.50;;;13.50;99.90;;;;;;4991371;28;20045;-67
2022/09/18 12:38:37;;;;;;;3.78;0.40;;;13.60;99.90;;;;;;4993418;28;20564;-68
2022/09/18 12:41:26;;;;;;;2.40;0.38;;;13.70;99.90;;;;;;4992014;28;20119;-68
2022/09/18 12:44:19;;;;;;;2.92;0.43;;;13.80;99.90;;;;;;4993316;28;20494;-68
2022/09/18 12:47:13;;;;;;;3.33;0.50;;;13.60;99.90;;;;;;4991474;28;20043;-68
2022/09/18 12:49:39;;;;;;;;;;;13.70;99.90;;;;;;4990767;28;20046;-67
2022/09/18 12:52:22;;;;;;;3.97;0.40;;;13.70;99.90;;;;;;5008563;28;19921;-68
2022/09/18 12:55:15;;;;;;;2.65;0.52;;;13.70;99.90;;;;;;4992639;28;20080;-67
2022/09/18 12:58:13;;;;;;;2.65;0.43;;;13.90;99.90;;;;;;4992267;28;20046;-69
2022/09/18 13:00:42;;;;;;;33.72;2.47;;;13.80;99.90;;;;;;4992750;28;20077;-68
2022/09/18 13:03:15;;;;;;;3.33;0.52;;;13.90;99.90;;;;;;4989993;28;20062;-68
2022/09/18 13:05:43;;;;;;;;;;;13.80;99.90;;;;;;4988140;28;20065;-69
2022/09/18 13:08:12;;;;;;;3.13;0.40;;;13.80;99.90;;;;;;4992928;28;20418;-69
2022/09/18 13:10:42;;;;;;;7.63;0.80;;;13.90;99.90;;;;;;4991456;28;20058;-67
2022/09/18 13:13:59;;;;;;;2.65;0.60;;;13.90;99.90;;;;;;4991569;28;20498;-69